createdAt,value
2023-02-11T00:01:52.652Z,1.63
2023-02-11T00:07:24.067Z,1.64
2023-02-11T00:12:56.087Z,1.69
2023-02-11T00:18:27.475Z,1.68
2023-02-11T00:23:59.228Z,1.66
2023-02-11T00:29:30.904Z,1.59
2023-02-11T00:35:03.080Z,1.57
2023-02-11T00:40:34.713Z,1.59
2023-02-11T00:46:06.319Z,1.57
2023-02-11T00:51:38.072Z,1.63
2023-02-11T00:57:16.892Z,1.64
2023-02-11T01:02:47.684Z,1.65
2023-02-11T01:08:20.040Z,1.68
2023-02-11T01:13:51.785Z,1.6
2023-02-11T01:19:23.952Z,1.46
2023-02-11T01:24:55.430Z,1.44
2023-02-11T01:30:26.954Z,1.45
2023-02-11T01:35:59.371Z,1.39
2023-02-11T01:41:30.613Z,1.22
2023-02-11T01:47:02.120Z,1.15
2023-02-11T01:52:33.820Z,1.1
2023-02-11T01:58:10.547Z,1.08
2023-02-11T02:03:41.745Z,1.1
2023-02-11T02:09:13.634Z,1.13
2023-02-11T02:14:45.338Z,1.01
2023-02-11T02:20:16.853Z,1.05
2023-02-11T02:25:49.098Z,1.03
2023-02-11T02:31:20.901Z,1.06
2023-02-11T02:36:52.282Z,1.11
2023-02-11T02:42:24.076Z,1.06
2023-02-11T02:47:55.726Z,1.07
2023-02-11T02:53:27.939Z,1.04
2023-02-11T02:59:05.646Z,0.98
2023-02-11T03:04:37.134Z,0.96
2023-02-11T03:10:10.037Z,0.92
2023-02-11T03:15:40.830Z,0.87
2023-02-11T03:21:12.553Z,0.77
2023-02-11T03:26:44.007Z,0.84
2023-02-11T03:32:15.958Z,0.86
2023-02-11T03:37:47.405Z,0.77
2023-02-11T03:43:19.093Z,0.85
2023-02-11T03:48:50.924Z,0.88
2023-02-11T03:54:22.766Z,0.84
2023-02-11T03:59:58.919Z,0.97
2023-02-11T04:05:30.676Z,1.12
2023-02-11T04:11:02.185Z,1.29
2023-02-11T04:16:34.109Z,1.2
2023-02-11T04:22:05.546Z,1.24
2023-02-11T04:27:37.325Z,1.23
2023-02-11T04:33:09.319Z,1.29
2023-02-11T04:38:40.751Z,1.41
2023-02-11T04:44:12.488Z,1.42
2023-02-11T04:49:44.231Z,1.46
2023-02-11T04:55:16.184Z,1.37
2023-02-11T05:00:52.389Z,1.54
2023-02-11T05:06:24.059Z,1.69
2023-02-11T05:11:55.560Z,1.75
2023-02-11T05:17:27.290Z,1.65
2023-02-11T05:22:58.961Z,1.5
2023-02-11T05:28:30.703Z,1.58
2023-02-11T05:34:02.714Z,1.59
2023-02-11T05:39:35.157Z,1.74
2023-02-11T05:45:05.941Z,1.9
2023-02-11T05:50:38.237Z,2.04
2023-02-11T05:56:09.648Z,2.23
2023-02-11T06:01:47.501Z,2.3
2023-02-11T06:07:19.237Z,2.38
2023-02-11T06:12:51.161Z,2.36
2023-02-11T06:18:22.654Z,2.22
2023-02-11T06:23:55.465Z,2.25
2023-02-11T06:29:26.306Z,2.37
2023-02-11T06:34:58.122Z,2.32
2023-02-11T06:40:30.455Z,2.38
2023-02-11T06:46:01.300Z,2.4
2023-02-11T06:51:32.988Z,2.43
2023-02-11T06:57:04.904Z,2.44
2023-02-11T07:02:41.628Z,2.27
2023-02-11T07:08:13.022Z,2.3
2023-02-11T07:13:44.257Z,2.32
2023-02-11T07:19:16.352Z,2.23
2023-02-11T07:24:48.003Z,2.44
2023-02-11T07:30:19.774Z,2.55
2023-02-11T07:35:51.778Z,2.59
2023-02-11T07:41:22.958Z,2.68
2023-02-11T07:46:54.714Z,2.56
2023-02-11T07:52:27.016Z,2.66
2023-02-11T07:57:58.128Z,2.77
2023-02-11T08:03:34.353Z,2.54
2023-02-11T08:09:05.981Z,2.49
2023-02-11T08:14:38.250Z,2.82
2023-02-11T08:20:09.669Z,2.78
2023-02-11T08:25:41.165Z,2.97
2023-02-11T08:31:13.242Z,3.36
2023-02-11T08:36:45.753Z,3.54
2023-02-11T08:42:16.796Z,3.67
2023-02-11T08:47:48.024Z,3.66
2023-02-11T08:53:19.709Z,3.69
2023-02-11T08:58:51.485Z,4.02
2023-02-11T09:04:27.878Z,4.4
2023-02-11T09:09:59.289Z,4.69
2023-02-11T09:15:31.778Z,5.46
2023-02-11T09:21:02.711Z,6.02
2023-02-11T09:26:34.749Z,5.85
2023-02-11T09:32:08.603Z,5.79
2023-02-11T09:37:37.934Z,6.06
2023-02-11T09:43:09.628Z,6.57
2023-02-11T09:48:41.346Z,6.73
2023-02-11T09:54:13.771Z,7.07
2023-02-11T09:59:45.099Z,6.7
2023-02-11T10:05:20.943Z,6.88
2023-02-11T10:10:52.988Z,6.5
2023-02-11T10:16:25.409Z,6.74
2023-02-11T10:21:57.398Z,7.19
2023-02-11T10:27:27.890Z,7.26
2023-02-11T10:32:59.714Z,7.53
2023-02-11T10:38:31.340Z,7.26
2023-02-11T10:44:03.053Z,7.42
2023-02-11T10:49:34.769Z,7.97
2023-02-11T10:55:06.455Z,7.93
2023-02-11T11:00:38.183Z,8.28
2023-02-11T11:06:16.777Z,8.43
2023-02-11T11:11:46.706Z,8.44
2023-02-11T11:17:18.497Z,9.1
2023-02-11T11:22:49.988Z,9.09
2023-02-11T11:28:22.035Z,8.31
2023-02-11T11:33:53.587Z,9.72
2023-02-11T11:39:25.418Z,9.66
2023-02-11T11:44:57.076Z,10.07
2023-02-11T11:50:28.672Z,10.44
2023-02-11T11:56:00.317Z,10.22
2023-02-11T12:01:33.076Z,10.37
2023-02-11T12:07:10.200Z,10.05
2023-02-11T12:12:41.919Z,10.05
2023-02-11T12:18:13.669Z,10.25
2023-02-11T12:23:45.587Z,10.46
2023-02-11T12:29:17.156Z,10.06
2023-02-11T12:34:49.817Z,10.5
2023-02-11T12:40:20.593Z,9.7
2023-02-11T12:45:52.381Z,9.93
2023-02-11T12:51:24.810Z,9.62
2023-02-11T12:56:55.745Z,9.45
2023-02-11T13:02:27.477Z,9.7
2023-02-11T13:08:03.821Z,9.97
2023-02-11T13:13:35.753Z,9.51
2023-02-11T13:19:07.757Z,9.7
2023-02-11T13:24:38.771Z,9.67
2023-02-11T13:30:10.702Z,10.13
2023-02-11T13:35:43.064Z,9.87
2023-02-11T13:41:14.355Z,9.79
2023-02-11T13:46:45.983Z,9.89
2023-02-11T13:52:17.619Z,9.91
2023-02-11T13:57:49.090Z,9.82
2023-02-11T14:03:20.823Z,9.59
2023-02-11T14:08:57.184Z,9.59
2023-02-11T14:14:28.707Z,9.61
2023-02-11T14:20:00.859Z,9.69
2023-02-11T14:25:32.125Z,9.69
2023-02-11T14:31:03.979Z,9.57
2023-02-11T14:36:35.766Z,9.78
2023-02-11T14:42:08.104Z,9.65
2023-02-11T14:47:39.069Z,9.25
2023-02-11T14:53:11.042Z,9.34
2023-02-11T14:58:43.782Z,9.37
2023-02-11T15:04:14.498Z,9.37
2023-02-11T15:09:54.226Z,9.38
2023-02-11T15:15:24.294Z,9.13
2023-02-11T15:20:55.804Z,9.21
2023-02-11T15:26:27.755Z,9.06
2023-02-11T15:31:59.592Z,8.98
2023-02-11T15:37:30.970Z,9.09
2023-02-11T15:43:02.753Z,8.89
2023-02-11T15:48:34.488Z,9.05
2023-02-11T15:54:06.529Z,8.59
2023-02-11T15:59:37.888Z,8.75
2023-02-11T16:05:09.553Z,8.75
2023-02-11T16:10:47.766Z,9.05
2023-02-11T16:16:19.742Z,9.11
2023-02-11T16:21:51.362Z,9.19
2023-02-11T16:27:22.833Z,9.24
2023-02-11T16:32:54.618Z,9.23
2023-02-11T16:38:26.872Z,9.17
2023-02-11T16:43:58.106Z,8.98
2023-02-11T16:49:30.043Z,8.91
2023-02-11T16:55:01.581Z,8.55
2023-02-11T17:00:33.519Z,8.49
2023-02-11T17:06:04.976Z,8.72
2023-02-11T17:11:41.358Z,8.62
2023-02-11T17:17:13.056Z,8.71
2023-02-11T17:22:44.534Z,8.6
2023-02-11T17:28:16.626Z,8.58
2023-02-11T17:33:47.971Z,8.44
2023-02-11T17:39:19.700Z,8.56
2023-02-11T17:44:51.708Z,8.54
2023-02-11T17:50:23.164Z,8.62
2023-02-11T17:55:55.082Z,8.52
2023-02-11T18:01:26.953Z,8.51
2023-02-11T18:06:58.350Z,8.48
2023-02-11T18:12:35.163Z,8.53
2023-02-11T18:18:06.214Z,8.42
2023-02-11T18:23:38.012Z,8.48
2023-02-11T18:29:10.689Z,8.47
2023-02-11T18:34:41.638Z,8.45
2023-02-11T18:40:13.065Z,8.46
2023-02-11T18:45:45.029Z,8.42
2023-02-11T18:51:16.650Z,8.34
2023-02-11T18:56:48.435Z,8.32
2023-02-11T19:02:19.900Z,8.27
2023-02-11T19:07:51.935Z,8.27
2023-02-11T19:13:29.787Z,8.27
2023-02-11T19:19:01.813Z,8.28
2023-02-11T19:24:33.511Z,8.25
2023-02-11T19:30:04.911Z,8.26
2023-02-11T19:35:36.925Z,8.27
2023-02-11T19:41:08.718Z,8.24
2023-02-11T19:46:40.199Z,8.26
2023-02-11T19:52:12.303Z,8.24
2023-02-11T19:57:43.928Z,8.21
2023-02-11T20:03:15.604Z,8.22
2023-02-11T20:08:47.009Z,8.18
2023-02-11T20:14:27.803Z,8.12
2023-02-11T20:19:57.148Z,8.14
2023-02-11T20:25:28.905Z,8.13
2023-02-11T20:31:00.392Z,8.12
2023-02-11T20:36:32.346Z,8.14
2023-02-11T20:42:03.761Z,8.17
2023-02-11T20:47:35.798Z,8.13
2023-02-11T20:53:07.181Z,8.0
2023-02-11T20:58:39.148Z,8.09
2023-02-11T21:04:10.886Z,8.13
2023-02-11T21:09:42.614Z,8.12
2023-02-11T21:15:18.418Z,8.08
2023-02-11T21:20:50.169Z,8.09
2023-02-11T21:26:21.903Z,8.07
2023-02-11T21:31:54.135Z,8.05
2023-02-11T21:37:25.295Z,8.08
2023-02-11T21:42:57.006Z,8.06
2023-02-11T21:48:28.783Z,8.06
2023-02-11T21:54:00.549Z,8.05
2023-02-11T21:59:32.258Z,8.0
2023-02-11T22:05:03.993Z,7.98
2023-02-11T22:10:35.649Z,7.96
2023-02-11T22:16:13.827Z,7.97
2023-02-11T22:21:45.531Z,7.97
2023-02-11T22:27:19.864Z,7.95
2023-02-11T22:32:49.011Z,7.97
2023-02-11T22:38:20.830Z,7.94
2023-02-11T22:43:52.454Z,7.93
2023-02-11T22:49:25.334Z,7.94
2023-02-11T22:54:55.989Z,7.95
2023-02-11T23:00:27.882Z,7.94
2023-02-11T23:05:59.366Z,7.93
2023-02-11T23:11:31.099Z,7.92
2023-02-11T23:17:07.408Z,7.89
2023-02-11T23:22:38.975Z,7.89
2023-02-11T23:28:10.675Z,7.87
2023-02-11T23:33:42.567Z,7.83
2023-02-11T23:39:14.133Z,7.8
2023-02-11T23:44:45.865Z,7.77
2023-02-11T23:50:17.512Z,7.75
2023-02-11T23:55:49.459Z,7.75
